createdAt,value
2019-03-09T00:00:51.255Z,16.18
2019-03-09T00:01:56.329Z,16.06
2019-03-09T00:03:01.622Z,16.39
2019-03-09T00:04:06.929Z,16.28
2019-03-09T00:05:11.988Z,16.38
2019-03-09T00:06:17.040Z,16.32
2019-03-09T00:07:22.372Z,16.29
2019-03-09T00:08:27.841Z,16.10
2019-03-09T00:09:33.193Z,15.85
2019-03-09T00:10:38.281Z,15.91
2019-03-09T00:11:43.569Z,16.09
2019-03-09T00:12:48.546Z,16.15
2019-03-09T00:13:53.301Z,16.09
2019-03-09T00:14:58.744Z,16.23
2019-03-09T00:16:03.237Z,15.93
2019-03-09T00:17:08.499Z,15.87
2019-03-09T00:18:13.760Z,15.86
2019-03-09T00:19:19.323Z,15.85
2019-03-09T00:20:24.363Z,16.06
2019-03-09T00:21:30.071Z,15.84
2019-03-09T00:22:34.756Z,15.87
2019-03-09T00:23:58.378Z,16.01
2019-03-09T00:25:10.654Z,16.07
2019-03-09T00:26:37.782Z,16.40
2019-03-09T00:27:47.381Z,16.19
2019-03-09T00:29:08.671Z,16.37
2019-03-09T00:30:34.995Z,15.89
2019-03-09T00:31:45.394Z,16.28
2019-03-09T00:32:50.649Z,16.47
2019-03-09T00:33:55.739Z,16.43
2019-03-09T00:35:00.492Z,16.38
2019-03-09T00:36:05.742Z,16.18
2019-03-09T00:37:11.011Z,16.24
2019-03-09T00:38:15.695Z,15.88
2019-03-09T00:39:20.407Z,16.07
2019-03-09T00:40:25.374Z,16.25
2019-03-09T00:41:31.222Z,15.99
2019-03-09T00:42:36.812Z,16.05
2019-03-09T00:43:42.308Z,16.17
2019-03-09T00:44:47.698Z,16.27
2019-03-09T00:45:52.976Z,15.95
2019-03-09T00:46:57.687Z,15.92
2019-03-09T00:48:02.925Z,15.94
2019-03-09T00:49:07.784Z,15.76
2019-03-09T00:50:12.802Z,15.68
2019-03-09T00:51:18.065Z,15.87
2019-03-09T00:52:23.146Z,15.58
2019-03-09T00:53:28.135Z,15.61
2019-03-09T00:54:33.728Z,15.70
2019-03-09T00:55:38.678Z,15.42
2019-03-09T00:56:43.646Z,15.75
2019-03-09T00:57:48.928Z,15.60
2019-03-09T00:58:53.889Z,15.72
2019-03-09T00:59:59.741Z,15.35
2019-03-09T01:01:04.769Z,15.58
2019-03-09T01:02:10.030Z,15.60
2019-03-09T01:03:15.022Z,15.35
2019-03-09T01:04:20.607Z,15.40
2019-03-09T01:05:25.354Z,15.45
2019-03-09T01:06:30.369Z,15.81
2019-03-09T01:07:34.828Z,15.85
2019-03-09T01:08:39.547Z,15.75
2019-03-09T01:09:44.023Z,15.53
2019-03-09T01:10:48.728Z,15.13
2019-03-09T01:11:54.041Z,15.49
2019-03-09T01:12:59.178Z,15.23
2019-03-09T01:14:04.456Z,14.69
2019-03-09T01:15:09.934Z,14.75
2019-03-09T01:16:14.621Z,14.78
2019-03-09T01:17:19.574Z,14.88
2019-03-09T01:18:24.894Z,14.54
2019-03-09T01:19:30.305Z,14.95
2019-03-09T01:20:34.794Z,14.82
2019-03-09T01:21:39.922Z,14.84
2019-03-09T01:22:45.163Z,14.89
2019-03-09T01:23:50.173Z,15.11
2019-03-09T01:24:55.238Z,14.80
2019-03-09T01:26:01.980Z,14.86
2019-03-09T01:27:07.189Z,14.87
2019-03-09T01:28:12.154Z,14.94
2019-03-09T01:29:16.863Z,14.96
2019-03-09T01:30:21.928Z,14.88
2019-03-09T01:31:27.300Z,15.11
2019-03-09T01:32:32.770Z,15.29
2019-03-09T01:33:37.778Z,14.98
2019-03-09T01:34:43.070Z,15.02
2019-03-09T01:35:47.579Z,15.43
2019-03-09T01:36:52.347Z,15.37
2019-03-09T01:37:57.335Z,15.52
2019-03-09T01:39:02.027Z,15.26
2019-03-09T01:40:08.210Z,15.30
2019-03-09T01:41:12.906Z,15.25
2019-03-09T01:42:18.237Z,15.06
2019-03-09T01:43:23.579Z,15.41
2019-03-09T01:44:28.554Z,15.27
2019-03-09T01:45:33.468Z,15.12
2019-03-09T01:46:38.439Z,15.33
2019-03-09T01:47:42.872Z,15.50
2019-03-09T01:48:47.684Z,15.45
2019-03-09T01:49:52.827Z,15.35
2019-03-09T01:50:57.862Z,15.56
2019-03-09T01:52:03.275Z,15.25
2019-03-09T01:53:08.082Z,15.44
2019-03-09T01:54:13.064Z,15.17
2019-03-09T01:55:18.052Z,15.21
2019-03-09T01:56:23.326Z,14.95
2019-03-09T01:57:27.765Z,15.28
2019-03-09T01:58:33.104Z,15.06
2019-03-09T01:59:38.093Z,15.10
2019-03-09T02:00:43.415Z,15.07
2019-03-09T02:01:48.691Z,15.15
2019-03-09T02:02:53.643Z,15.25
2019-03-09T02:03:58.631Z,15.06
2019-03-09T02:05:03.623Z,15.19
2019-03-09T02:06:08.683Z,14.94
2019-03-09T02:07:14.081Z,15.36
2019-03-09T02:08:19.093Z,15.19
2019-03-09T02:09:24.211Z,15.01
2019-03-09T02:10:29.215Z,14.80
2019-03-09T02:11:34.182Z,14.96
2019-03-09T02:12:38.886Z,15.07
2019-03-09T02:13:43.976Z,14.24
2019-03-09T02:14:48.956Z,14.59
2019-03-09T02:15:57.685Z,14.71
2019-03-09T02:17:02.388Z,14.73
2019-03-09T02:18:07.375Z,14.45
2019-03-09T02:19:12.436Z,14.99
2019-03-09T02:20:17.174Z,15.30
2019-03-09T02:21:22.743Z,15.31
2019-03-09T02:22:27.196Z,15.20
2019-03-09T02:23:32.284Z,15.14
2019-03-09T02:24:37.270Z,15.16
2019-03-09T02:25:42.840Z,15.05
2019-03-09T02:26:47.582Z,14.94
2019-03-09T02:27:52.854Z,15.00
2019-03-09T02:28:58.157Z,15.04
2019-03-09T02:30:02.983Z,14.73
2019-03-09T02:31:08.034Z,15.17
2019-03-09T02:32:13.265Z,15.19
2019-03-09T02:33:18.359Z,15.32
2019-03-09T02:34:23.710Z,15.19
2019-03-09T02:35:28.738Z,14.82
2019-03-09T02:36:33.598Z,15.10
2019-03-09T02:37:38.827Z,15.22
2019-03-09T02:38:49.081Z,15.00
2019-03-09T02:39:58.638Z,15.05
2019-03-09T02:41:03.434Z,15.17
2019-03-09T02:42:08.674Z,14.66
2019-03-09T02:43:13.968Z,15.03
2019-03-09T02:44:18.928Z,15.43
2019-03-09T02:45:24.317Z,15.31
2019-03-09T02:46:30.140Z,15.39
2019-03-09T02:47:34.823Z,15.21
2019-03-09T02:48:39.827Z,15.07
2019-03-09T02:49:45.164Z,15.16
2019-03-09T02:50:59.172Z,15.18
2019-03-09T02:52:03.864Z,15.07
2019-03-09T02:53:09.100Z,15.16
2019-03-09T02:54:13.789Z,15.30
2019-03-09T02:55:18.231Z,15.69
2019-03-09T02:56:23.258Z,15.32
2019-03-09T02:57:28.326Z,15.18
2019-03-09T02:58:33.713Z,15.30
2019-03-09T02:59:38.437Z,15.31
2019-03-09T03:00:48.414Z,15.48
2019-03-09T03:02:18.255Z,15.64
2019-03-09T03:03:23.811Z,15.56
2019-03-09T03:04:28.543Z,15.28
2019-03-09T03:05:33.586Z,15.52
2019-03-09T03:06:38.472Z,15.42
2019-03-09T03:07:43.429Z,15.66
2019-03-09T03:08:48.985Z,15.23
2019-03-09T03:09:53.473Z,15.49
2019-03-09T03:10:58.533Z,15.70
2019-03-09T03:12:03.081Z,15.70
2019-03-09T03:13:08.559Z,14.96
2019-03-09T03:14:14.121Z,15.86
2019-03-09T03:15:32.600Z,15.91
2019-03-09T03:16:38.169Z,16.15
2019-03-09T03:17:43.526Z,16.34
2019-03-09T03:18:48.507Z,15.59
2019-03-09T03:19:53.537Z,15.73
2019-03-09T03:20:58.580Z,15.56
2019-03-09T03:22:03.319Z,15.95
2019-03-09T03:23:08.082Z,16.09
2019-03-09T03:24:12.752Z,16.08
2019-03-09T03:25:17.806Z,16.10
2019-03-09T03:26:22.846Z,16.19
2019-03-09T03:27:27.987Z,16.12
2019-03-09T03:28:32.684Z,16.46
2019-03-09T03:29:37.710Z,16.16
2019-03-09T03:30:42.950Z,16.38
2019-03-09T03:31:47.935Z,16.06
2019-03-09T03:32:54.637Z,16.36
2019-03-09T03:33:59.388Z,16.18
2019-03-09T03:35:04.551Z,15.84
2019-03-09T03:36:09.518Z,16.08
2019-03-09T03:37:14.297Z,16.25
2019-03-09T03:38:19.600Z,16.03
2019-03-09T03:39:24.616Z,16.21
2019-03-09T03:40:29.929Z,16.49
2019-03-09T03:41:34.745Z,16.04
2019-03-09T03:42:39.989Z,15.89
2019-03-09T03:43:44.679Z,16.10
2019-03-09T03:44:49.676Z,16.39
2019-03-09T03:45:55.121Z,16.31
2019-03-09T03:47:00.208Z,16.06
2019-03-09T03:48:05.161Z,15.78
2019-03-09T03:49:09.859Z,16.03
2019-03-09T03:50:14.838Z,16.47
2019-03-09T03:51:19.656Z,15.92
2019-03-09T03:52:24.662Z,16.02
2019-03-09T03:53:30.049Z,16.22
2019-03-09T03:54:35.903Z,16.04
2019-03-09T03:55:41.019Z,16.24
2019-03-09T03:56:47.444Z,15.92
2019-03-09T03:57:53.149Z,15.96
2019-03-09T03:58:57.696Z,16.05
2019-03-09T04:00:03.002Z,15.84
2019-03-09T04:01:07.738Z,15.95
2019-03-09T04:02:12.712Z,16.27
2019-03-09T04:03:18.238Z,16.02
2019-03-09T04:04:23.221Z,16.13
2019-03-09T04:05:28.425Z,16.20
2019-03-09T04:06:34.087Z,16.59
2019-03-09T04:07:39.363Z,16.11
2019-03-09T04:08:44.693Z,16.14
2019-03-09T04:09:49.971Z,15.83
2019-03-09T04:10:55.633Z,16.15
2019-03-09T04:12:00.943Z,16.31
2019-03-09T04:13:05.939Z,15.75
2019-03-09T04:14:11.278Z,16.51
2019-03-09T04:15:16.247Z,16.27
2019-03-09T04:16:21.262Z,16.14
2019-03-09T04:17:26.001Z,16.43
2019-03-09T04:18:31.811Z,16.42
2019-03-09T04:19:37.082Z,16.13
2019-03-09T04:20:42.884Z,16.60
2019-03-09T04:21:48.565Z,16.57
2019-03-09T04:22:53.729Z,15.67
2019-03-09T04:23:58.420Z,16.57
2019-03-09T04:25:03.409Z,16.49
2019-03-09T04:26:09.015Z,16.71
2019-03-09T04:27:13.728Z,16.75
2019-03-09T04:28:18.715Z,16.59
2019-03-09T04:29:23.694Z,16.50
2019-03-09T04:30:28.738Z,16.85
2019-03-09T04:31:36.998Z,16.42
2019-03-09T04:32:42.300Z,16.90
2019-03-09T04:33:47.554Z,16.76
2019-03-09T04:34:52.308Z,16.54
2019-03-09T04:35:56.990Z,16.38
2019-03-09T04:37:02.729Z,16.87
2019-03-09T04:38:07.396Z,17.10
2019-03-09T04:39:12.637Z,17.06
2019-03-09T04:40:17.247Z,16.41
2019-03-09T04:41:22.245Z,16.64
2019-03-09T04:42:27.101Z,16.48
2019-03-09T04:43:32.177Z,16.37
2019-03-09T04:44:36.970Z,16.52
2019-03-09T04:45:41.977Z,16.68
2019-03-09T04:46:47.304Z,16.46
2019-03-09T04:47:52.536Z,16.77
2019-03-09T04:48:57.519Z,16.70
2019-03-09T04:50:02.043Z,16.73
2019-03-09T04:51:06.743Z,16.59
2019-03-09T04:52:11.987Z,16.52
2019-03-09T04:53:17.251Z,16.51
2019-03-09T04:54:22.223Z,16.47
2019-03-09T04:55:27.497Z,16.88
2019-03-09T04:56:32.373Z,16.96
2019-03-09T04:57:37.379Z,17.17
2019-03-09T04:58:42.631Z,16.90
2019-03-09T04:59:47.941Z,17.00
2019-03-09T05:00:52.974Z,17.37
2019-03-09T05:01:58.036Z,17.02
2019-03-09T05:03:03.382Z,17.09
2019-03-09T05:04:51.250Z,17.11
2019-03-09T05:05:56.267Z,17.47
2019-03-09T05:07:01.569Z,17.09
2019-03-09T05:08:27.314Z,17.16
2019-03-09T05:10:00.299Z,17.16
2019-03-09T05:11:15.281Z,17.12
2019-03-09T05:12:20.243Z,17.21
2019-03-09T05:13:33.858Z,16.45
2019-03-09T05:14:38.586Z,17.08
2019-03-09T05:15:44.191Z,16.96
2019-03-09T05:16:49.316Z,16.72
2019-03-09T05:17:54.621Z,16.87
2019-03-09T05:20:18.688Z,16.57
2019-03-09T05:21:23.381Z,16.53
2019-03-09T05:22:28.406Z,16.75
2019-03-09T05:23:33.600Z,16.87
2019-03-09T05:24:39.212Z,16.50
2019-03-09T05:25:44.233Z,17.23
2019-03-09T05:26:48.950Z,17.45
2019-03-09T05:27:54.491Z,16.95
2019-03-09T05:28:59.927Z,16.87
2019-03-09T05:30:05.236Z,16.98
2019-03-09T05:31:10.238Z,17.18
2019-03-09T05:32:15.725Z,16.76
2019-03-09T05:33:20.751Z,17.62
2019-03-09T05:34:26.317Z,17.25
2019-03-09T05:35:31.047Z,17.48
2019-03-09T05:36:39.352Z,17.00
2019-03-09T05:37:44.098Z,17.53
2019-03-09T05:38:48.859Z,17.21
2019-03-09T05:39:53.646Z,17.42
2019-03-09T05:40:58.932Z,17.43
2019-03-09T05:42:03.614Z,17.09
2019-03-09T05:43:08.865Z,17.53
2019-03-09T05:44:14.245Z,17.51
2019-03-09T05:45:19.195Z,17.10
2019-03-09T05:46:24.386Z,17.52
2019-03-09T05:47:29.971Z,17.64
2019-03-09T05:48:34.964Z,17.52
2019-03-09T05:49:39.965Z,17.37
2019-03-09T05:50:45.236Z,17.46
2019-03-09T05:52:33.145Z,17.16
2019-03-09T05:53:38.413Z,17.48
2019-03-09T05:54:43.384Z,17.70
2019-03-09T05:55:48.367Z,17.72
2019-03-09T05:56:53.140Z,17.74
2019-03-09T05:57:58.176Z,18.13
2019-03-09T05:59:03.215Z,17.92
2019-03-09T06:00:08.550Z,17.95
2019-03-09T06:01:13.317Z,17.86
2019-03-09T06:02:18.034Z,17.74
2019-03-09T06:03:23.298Z,17.64
2019-03-09T06:04:28.565Z,17.74
2019-03-09T06:05:38.240Z,17.61
2019-03-09T06:06:43.553Z,17.57
2019-03-09T06:07:48.768Z,17.18
2019-03-09T06:08:53.562Z,17.36
2019-03-09T06:09:58.281Z,17.43
2019-03-09T06:11:03.255Z,17.16
2019-03-09T06:12:08.825Z,17.23
2019-03-09T06:13:13.535Z,17.31
2019-03-09T06:14:18.558Z,17.39
2019-03-09T06:15:23.289Z,17.06
2019-03-09T06:16:28.670Z,17.58
2019-03-09T06:17:34.009Z,17.29
2019-03-09T06:18:39.291Z,17.10
2019-03-09T06:19:44.263Z,17.33
2019-03-09T06:20:49.262Z,17.53
2019-03-09T06:21:54.960Z,17.64
2019-03-09T06:23:00.172Z,17.72
2019-03-09T06:24:05.134Z,17.72
2019-03-09T06:25:10.591Z,18.01
2019-03-09T06:26:15.878Z,17.62
2019-03-09T06:27:21.277Z,17.23
2019-03-09T06:28:26.375Z,17.51
2019-03-09T06:29:31.707Z,17.72
2019-03-09T06:30:36.981Z,17.68
2019-03-09T06:31:46.105Z,17.88
2019-03-09T06:33:18.779Z,17.66
2019-03-09T06:34:23.770Z,17.97
2019-03-09T06:35:29.075Z,17.54
2019-03-09T06:37:06.873Z,17.81
2019-03-09T06:38:44.110Z,18.00
2019-03-09T06:39:51.450Z,18.05
2019-03-09T06:41:02.996Z,17.59
2019-03-09T06:42:38.412Z,18.01
2019-03-09T06:43:43.989Z,17.82
2019-03-09T06:44:48.961Z,18.12
2019-03-09T06:45:54.232Z,17.89
2019-03-09T06:46:59.192Z,17.79
2019-03-09T06:48:03.650Z,18.07
2019-03-09T06:49:08.883Z,17.97
2019-03-09T06:50:15.599Z,17.76
2019-03-09T06:51:20.880Z,17.65
2019-03-09T06:52:25.817Z,17.83
2019-03-09T06:53:33.806Z,18.28
2019-03-09T06:54:38.748Z,18.01
2019-03-09T06:55:43.439Z,17.86
2019-03-09T06:56:48.679Z,17.81
2019-03-09T06:57:53.366Z,17.73
2019-03-09T06:58:58.101Z,18.11
2019-03-09T07:00:07.086Z,17.97
2019-03-09T07:01:20.375Z,18.31
2019-03-09T07:02:25.651Z,18.06
2019-03-09T07:03:31.297Z,18.55
2019-03-09T07:04:36.248Z,18.54
2019-03-09T07:05:41.527Z,18.32
2019-03-09T07:06:46.809Z,18.31
2019-03-09T07:07:52.089Z,18.56
2019-03-09T07:08:57.094Z,18.37
2019-03-09T07:10:02.415Z,18.28
2019-03-09T07:11:07.747Z,18.53
2019-03-09T07:12:12.760Z,17.91
2019-03-09T07:13:17.801Z,17.96
2019-03-09T07:14:58.352Z,18.33
2019-03-09T07:16:03.590Z,18.61
2019-03-09T07:17:08.037Z,18.58
2019-03-09T07:18:24.018Z,17.91
2019-03-09T07:19:28.451Z,18.38
2019-03-09T07:20:35.153Z,17.91
2019-03-09T07:21:40.167Z,17.62
2019-03-09T07:22:45.228Z,18.23
2019-03-09T07:23:49.927Z,18.34
2019-03-09T07:24:54.381Z,18.28
2019-03-09T07:25:59.053Z,17.92
2019-03-09T07:27:04.085Z,18.28
2019-03-09T07:28:10.537Z,18.25
2019-03-09T07:29:15.508Z,18.54
2019-03-09T07:30:20.237Z,18.29
2019-03-09T07:31:25.181Z,18.14
2019-03-09T07:32:29.949Z,18.13
2019-03-09T07:33:35.206Z,18.42
2019-03-09T07:34:40.489Z,18.56
2019-03-09T07:35:45.336Z,18.35
2019-03-09T07:36:50.100Z,18.15
2019-03-09T07:37:55.369Z,18.63
2019-03-09T07:39:00.085Z,18.36
2019-03-09T07:40:04.960Z,19.18
2019-03-09T07:41:10.230Z,19.31
2019-03-09T07:42:15.212Z,19.02
2019-03-09T07:43:20.782Z,19.27
2019-03-09T07:44:26.029Z,19.18
2019-03-09T07:45:31.037Z,19.30
2019-03-09T07:46:35.729Z,18.75
2019-03-09T07:47:40.422Z,19.02
2019-03-09T07:48:45.381Z,18.77
2019-03-09T07:49:50.320Z,18.98
2019-03-09T07:50:55.272Z,19.37
2019-03-09T07:52:00.891Z,19.53
2019-03-09T07:53:05.619Z,18.44
2019-03-09T07:54:10.606Z,18.71
2019-03-09T07:55:15.566Z,18.82
2019-03-09T07:56:20.862Z,18.93
2019-03-09T07:57:25.877Z,18.61
2019-03-09T07:58:30.927Z,18.51
2019-03-09T07:59:36.208Z,18.70
2019-03-09T08:00:41.012Z,18.92
2019-03-09T08:01:45.955Z,18.43
2019-03-09T08:02:51.194Z,18.93
2019-03-09T08:03:56.200Z,18.83
2019-03-09T08:05:01.241Z,18.66
2019-03-09T08:06:05.975Z,18.30
2019-03-09T08:07:11.328Z,18.21
2019-03-09T08:08:16.363Z,18.07
2019-03-09T08:09:21.654Z,18.53
2019-03-09T08:10:26.468Z,18.57
2019-03-09T08:11:32.223Z,19.26
2019-03-09T08:12:37.304Z,18.80
2019-03-09T08:13:42.579Z,18.60
2019-03-09T08:14:47.308Z,18.09
2019-03-09T08:15:52.673Z,17.89
2019-03-09T08:16:57.677Z,18.12
2019-03-09T08:18:02.710Z,18.58
2019-03-09T08:19:07.716Z,18.66
2019-03-09T08:20:12.186Z,18.29
2019-03-09T08:21:17.458Z,18.54
2019-03-09T08:22:22.073Z,18.62
2019-03-09T08:23:27.135Z,18.82
2019-03-09T08:24:32.168Z,18.67
2019-03-09T08:25:37.457Z,18.42
2019-03-09T08:26:42.184Z,18.61
2019-03-09T08:27:46.963Z,18.16
2019-03-09T08:28:52.014Z,18.08
2019-03-09T08:29:57.001Z,18.19
2019-03-09T08:31:02.243Z,17.92
2019-03-09T08:32:07.223Z,18.17
2019-03-09T08:33:12.452Z,18.36
2019-03-09T08:34:17.460Z,18.75
2019-03-09T08:35:22.704Z,18.38
2019-03-09T08:36:27.811Z,18.25
2019-03-09T08:37:33.412Z,18.52
2019-03-09T08:38:38.127Z,18.65
2019-03-09T08:39:43.663Z,18.67
2019-03-09T08:40:48.659Z,18.42
2019-03-09T08:41:53.667Z,18.24
2019-03-09T08:42:58.951Z,18.00
2019-03-09T08:44:03.785Z,18.01
2019-03-09T08:45:09.093Z,18.08
2019-03-09T08:46:13.861Z,18.30
2019-03-09T08:47:18.833Z,18.33
2019-03-09T08:48:23.555Z,18.18
2019-03-09T08:49:29.095Z,18.20
2019-03-09T08:50:34.221Z,18.29
2019-03-09T08:51:39.444Z,18.11
2019-03-09T08:52:44.336Z,18.25
2019-03-09T08:53:49.085Z,17.98
2019-03-09T08:54:54.034Z,18.37
2019-03-09T08:55:59.281Z,18.67
2019-03-09T08:57:04.039Z,18.68
2019-03-09T08:58:08.984Z,18.38
2019-03-09T08:59:13.798Z,18.11
2019-03-09T09:00:23.682Z,18.34
2019-03-09T09:01:28.404Z,18.65
2019-03-09T09:02:33.071Z,18.43
2019-03-09T09:03:38.744Z,18.81
2019-03-09T09:04:44.059Z,18.50
2019-03-09T09:05:58.172Z,19.01
2019-03-09T09:07:03.458Z,18.33
2019-03-09T09:08:08.598Z,18.48
2019-03-09T09:09:13.566Z,19.05
2019-03-09T09:10:18.277Z,18.62
2019-03-09T09:11:23.213Z,19.09
2019-03-09T09:12:27.889Z,19.12
2019-03-09T09:13:33.321Z,18.83
2019-03-09T09:14:38.334Z,19.25
2019-03-09T09:15:43.632Z,19.20
2019-03-09T09:16:48.853Z,19.21
2019-03-09T09:17:53.527Z,19.26
2019-03-09T09:18:58.198Z,19.34
2019-03-09T09:20:03.484Z,18.84
2019-03-09T09:21:08.480Z,19.26
2019-03-09T09:22:13.789Z,19.56
2019-03-09T09:23:18.223Z,19.32
2019-03-09T09:24:23.497Z,19.37
2019-03-09T09:25:28.280Z,19.38
2019-03-09T09:26:33.274Z,19.26
2019-03-09T09:27:38.015Z,19.22
2019-03-09T09:28:43.030Z,19.44
2019-03-09T09:29:47.513Z,18.63
2019-03-09T09:30:52.234Z,19.12
2019-03-09T09:31:58.140Z,18.66
2019-03-09T09:33:03.499Z,18.91
2019-03-09T09:34:07.971Z,19.24
2019-03-09T09:35:12.981Z,18.90
2019-03-09T09:36:18.582Z,19.27
2019-03-09T09:37:23.602Z,19.04
2019-03-09T09:38:28.347Z,19.12
2019-03-09T09:39:33.809Z,18.74
2019-03-09T09:40:38.802Z,19.47
2019-03-09T09:41:43.508Z,18.68
2019-03-09T09:42:48.806Z,19.08
2019-03-09T09:43:54.625Z,19.17
2019-03-09T09:44:59.697Z,19.22
2019-03-09T09:46:04.438Z,18.99
2019-03-09T09:47:09.655Z,19.14
2019-03-09T09:48:14.930Z,19.30
2019-03-09T09:49:20.513Z,19.62
2019-03-09T09:50:25.565Z,19.79
2019-03-09T09:51:30.568Z,19.47
2019-03-09T09:52:35.585Z,19.55
2019-03-09T09:53:40.917Z,19.26
2019-03-09T09:54:45.651Z,19.82
2019-03-09T09:55:50.325Z,19.69
2019-03-09T09:56:55.338Z,19.70
2019-03-09T09:58:00.087Z,19.64
2019-03-09T09:59:04.810Z,19.95
2019-03-09T10:00:13.283Z,19.62
2019-03-09T10:01:18.240Z,19.23
2019-03-09T10:02:23.257Z,19.68
2019-03-09T10:03:27.936Z,19.57
2019-03-09T10:04:33.980Z,19.55
2019-03-09T10:05:38.677Z,19.64
2019-03-09T10:06:43.356Z,19.48
2019-03-09T10:07:48.053Z,19.67
2019-03-09T10:08:53.315Z,19.85
2019-03-09T10:09:58.631Z,20.13
2019-03-09T10:11:04.091Z,19.81
2019-03-09T10:12:08.793Z,20.27
2019-03-09T10:13:13.759Z,19.63
2019-03-09T10:14:19.397Z,20.05
2019-03-09T10:15:25.609Z,20.37
2019-03-09T10:16:31.673Z,20.59
2019-03-09T10:17:36.356Z,20.45
2019-03-09T10:18:41.301Z,19.86
2019-03-09T10:19:46.034Z,20.21
2019-03-09T10:20:51.273Z,20.18
2019-03-09T10:21:56.550Z,19.99
2019-03-09T10:23:04.713Z,19.76
2019-03-09T10:24:08.761Z,20.37
2019-03-09T10:25:14.766Z,20.60
2019-03-09T10:26:19.488Z,19.69
2019-03-09T10:27:24.752Z,20.21
2019-03-09T10:28:29.744Z,20.03
2019-03-09T10:29:35.253Z,20.25
2019-03-09T10:30:40.678Z,20.57
2019-03-09T10:31:45.789Z,20.17
2019-03-09T10:32:51.156Z,20.58
2019-03-09T10:33:56.396Z,20.60
2019-03-09T10:35:01.378Z,20.63
2019-03-09T10:36:06.616Z,20.70
2019-03-09T10:37:12.025Z,20.69
2019-03-09T10:38:17.297Z,20.64
2019-03-09T10:39:22.286Z,20.85
2019-03-09T10:40:26.731Z,20.38
2019-03-09T10:41:32.135Z,20.84
2019-03-09T10:42:37.457Z,20.60
2019-03-09T10:43:42.798Z,19.59
2019-03-09T10:44:47.255Z,20.40
2019-03-09T10:45:52.506Z,19.59
2019-03-09T10:46:57.788Z,19.92
2019-03-09T10:48:04.555Z,20.03
2019-03-09T10:49:09.863Z,20.20
2019-03-09T10:50:15.013Z,20.20
2019-03-09T10:51:19.988Z,20.02
2019-03-09T10:52:24.708Z,19.92
2019-03-09T10:53:29.952Z,19.75
2019-03-09T10:54:36.181Z,20.10
2019-03-09T10:55:42.666Z,19.98
2019-03-09T10:56:48.254Z,20.20
2019-03-09T10:57:53.227Z,19.79
2019-03-09T10:58:58.216Z,20.07
2019-03-09T11:00:03.540Z,19.80
2019-03-09T11:01:09.615Z,20.12
2019-03-09T11:02:14.706Z,20.38
2019-03-09T11:03:19.998Z,19.44
2019-03-09T11:04:27.842Z,18.91
2019-03-09T11:05:31.776Z,19.88
2019-03-09T11:06:36.752Z,20.01
2019-03-09T11:07:41.719Z,19.70
2019-03-09T11:08:46.960Z,20.32
2019-03-09T11:09:51.635Z,19.91
2019-03-09T11:10:56.110Z,20.19
2019-03-09T11:12:01.161Z,19.96
2019-03-09T11:13:05.997Z,19.68
2019-03-09T11:14:11.252Z,19.53
2019-03-09T11:15:16.382Z,19.90
2019-03-09T11:16:21.105Z,19.96
2019-03-09T11:17:26.457Z,20.18
2019-03-09T11:18:31.858Z,19.35
2019-03-09T11:19:36.460Z,19.88
2019-03-09T11:20:41.413Z,19.96
2019-03-09T11:21:46.573Z,20.29
2019-03-09T11:22:51.810Z,20.34
2019-03-09T11:23:57.087Z,20.71
2019-03-09T11:25:03.671Z,20.22
2019-03-09T11:26:08.533Z,20.18
2019-03-09T11:27:13.505Z,20.20
2019-03-09T11:28:18.489Z,20.04
2019-03-09T11:29:23.174Z,20.54
2019-03-09T11:30:28.236Z,19.87
2019-03-09T11:31:33.271Z,20.27
2019-03-09T11:32:38.261Z,20.56
2019-03-09T11:33:43.507Z,20.84
2019-03-09T11:34:48.781Z,20.44
2019-03-09T11:35:53.813Z,20.72
2019-03-09T11:36:58.754Z,20.53
2019-03-09T11:38:04.105Z,20.90
2019-03-09T11:39:09.300Z,21.12
2019-03-09T11:40:14.825Z,20.40
2019-03-09T11:41:19.834Z,21.19
2019-03-09T11:42:24.972Z,21.37
2019-03-09T11:43:29.654Z,20.84
2019-03-09T11:44:35.113Z,21.32
2019-03-09T11:45:40.170Z,20.84
2019-03-09T11:46:45.143Z,20.97
2019-03-09T11:47:50.162Z,21.81
2019-03-09T11:48:55.228Z,21.24
2019-03-09T11:50:00.400Z,20.41
2019-03-09T11:51:05.356Z,20.90
2019-03-09T11:52:19.477Z,23.48
2019-03-09T11:53:16.797Z,23.88
2019-03-09T11:54:22.078Z,24.58
2019-03-09T11:55:26.893Z,22.88
2019-03-09T11:56:31.438Z,22.05
2019-03-09T11:57:36.970Z,22.89
2019-03-09T11:58:42.265Z,22.13
2019-03-09T11:59:47.267Z,21.37
2019-03-09T12:00:52.294Z,20.75
2019-03-09T12:01:57.569Z,21.51
2019-03-09T12:03:02.327Z,21.59
2019-03-09T12:04:07.038Z,22.45
2019-03-09T12:05:12.428Z,23.92
2019-03-09T12:06:17.665Z,22.35
2019-03-09T12:07:22.342Z,24.74
2019-03-09T12:08:27.695Z,23.41
2019-03-09T12:09:32.372Z,24.22
2019-03-09T12:10:37.351Z,23.96
2019-03-09T12:11:43.828Z,23.83
2019-03-09T12:12:49.924Z,23.28
2019-03-09T12:13:54.886Z,22.90
2019-03-09T12:14:59.866Z,22.76
2019-03-09T12:16:04.883Z,23.67
2019-03-09T12:17:12.337Z,22.98
2019-03-09T12:18:16.371Z,23.60
2019-03-09T12:19:21.058Z,24.27
2019-03-09T12:20:27.756Z,24.26
2019-03-09T12:21:33.102Z,23.96
2019-03-09T12:22:37.943Z,23.24
2019-03-09T12:23:43.025Z,23.18
2019-03-09T12:24:51.897Z,23.48
2019-03-09T12:25:56.395Z,22.91
2019-03-09T12:27:01.474Z,22.42
2019-03-09T12:28:06.477Z,22.42
2019-03-09T12:29:11.446Z,22.23
2019-03-09T12:30:17.043Z,22.86
2019-03-09T12:31:22.030Z,22.86
2019-03-09T12:32:26.711Z,22.98
2019-03-09T12:33:31.737Z,22.54
2019-03-09T12:34:37.011Z,22.94
2019-03-09T12:35:44.067Z,23.69
2019-03-09T12:36:48.678Z,23.37
2019-03-09T12:37:54.157Z,22.64
2019-03-09T12:38:59.178Z,22.07
2019-03-09T12:40:03.910Z,21.65
2019-03-09T12:41:08.942Z,22.21
2019-03-09T12:42:14.301Z,21.72
2019-03-09T12:43:19.001Z,21.76
2019-03-09T12:44:24.564Z,21.85
2019-03-09T12:45:29.613Z,22.21
2019-03-09T12:46:34.692Z,21.50
2019-03-09T12:47:39.384Z,21.92
2019-03-09T12:48:44.402Z,21.94
2019-03-09T12:49:49.119Z,21.86
2019-03-09T12:50:54.110Z,21.77
2019-03-09T12:51:58.865Z,22.13
2019-03-09T12:53:04.232Z,22.25
2019-03-09T12:54:08.948Z,22.10
2019-03-09T12:55:14.810Z,21.72
2019-03-09T12:56:20.333Z,22.08
2019-03-09T12:57:25.370Z,21.88
2019-03-09T12:58:30.100Z,21.35
2019-03-09T12:59:35.650Z,21.27
2019-03-09T13:00:40.138Z,21.56
2019-03-09T13:01:45.397Z,21.88
2019-03-09T13:02:50.382Z,21.75
2019-03-09T13:03:55.511Z,21.71
2019-03-09T13:05:00.954Z,21.88
2019-03-09T13:06:05.650Z,22.64
2019-03-09T13:07:10.937Z,21.93
2019-03-09T13:08:15.458Z,22.43
2019-03-09T13:09:20.140Z,21.52
2019-03-09T13:10:24.864Z,21.77
2019-03-09T13:11:30.000Z,21.68
2019-03-09T13:12:35.198Z,21.43
2019-03-09T13:13:39.695Z,21.42
2019-03-09T13:14:44.371Z,21.70
2019-03-09T13:15:49.655Z,21.28
2019-03-09T13:16:54.408Z,21.00
2019-03-09T13:17:59.689Z,20.98
2019-03-09T13:19:04.407Z,21.33
2019-03-09T13:20:09.441Z,21.38
2019-03-09T13:21:14.666Z,21.29
2019-03-09T13:22:19.664Z,20.94
2019-03-09T13:23:24.631Z,20.93
2019-03-09T13:24:29.689Z,20.65
2019-03-09T13:25:34.494Z,21.02
2019-03-09T13:26:39.582Z,20.76
2019-03-09T13:27:44.564Z,20.93
2019-03-09T13:28:49.583Z,21.03
2019-03-09T13:29:54.741Z,20.67
2019-03-09T13:31:00.296Z,20.90
2019-03-09T13:32:05.256Z,20.94
2019-03-09T13:33:09.942Z,21.16
2019-03-09T13:34:14.887Z,21.04
2019-03-09T13:35:19.754Z,20.72
2019-03-09T13:36:24.513Z,20.48
2019-03-09T13:37:28.979Z,20.63
2019-03-09T13:38:34.526Z,21.02
2019-03-09T13:39:39.201Z,21.45
2019-03-09T13:40:44.175Z,21.40
2019-03-09T13:41:49.178Z,21.38
2019-03-09T13:42:53.949Z,21.25
2019-03-09T13:43:59.196Z,20.57
2019-03-09T13:45:04.172Z,21.17
2019-03-09T13:46:09.541Z,20.61
2019-03-09T13:47:14.489Z,20.60
2019-03-09T13:48:19.647Z,20.65
2019-03-09T13:49:24.610Z,20.88
2019-03-09T13:50:30.049Z,21.44
2019-03-09T13:51:34.716Z,20.39
2019-03-09T13:52:39.656Z,20.66
2019-03-09T13:53:44.912Z,20.33
2019-03-09T13:54:50.329Z,20.71
2019-03-09T13:55:55.103Z,20.62
2019-03-09T13:56:59.837Z,20.38
2019-03-09T13:58:04.538Z,20.72
2019-03-09T13:59:09.307Z,20.12
2019-03-09T14:00:15.236Z,20.04
2019-03-09T14:01:20.550Z,20.10
2019-03-09T14:02:25.542Z,19.27
2019-03-09T14:03:30.601Z,19.48
2019-03-09T14:04:35.884Z,19.57
2019-03-09T14:05:41.456Z,19.00
2019-03-09T14:06:45.922Z,19.30
2019-03-09T14:07:51.204Z,19.75
2019-03-09T14:08:56.206Z,20.46